createdAt,value
2018-08-25T00:01:32.701Z,13.90
2018-08-25T00:04:01.235Z,13.93
2018-08-25T00:06:29.709Z,15.60
2018-08-25T00:08:58.154Z,14.97
2018-08-25T00:11:26.651Z,13.87
2018-08-25T00:13:55.095Z,13.07
2018-08-25T00:16:23.580Z,14.47
2018-08-25T00:18:52.014Z,16.10
2018-08-25T00:21:20.497Z,13.40
2018-08-25T00:23:48.946Z,14.00
2018-08-25T00:26:17.409Z,14.27
2018-08-25T00:28:45.842Z,16.83
2018-08-25T00:31:19.560Z,15.33
2018-08-25T00:33:48.001Z,14.17
2018-08-25T00:36:16.455Z,14.80
2018-08-25T00:38:44.935Z,16.27
2018-08-25T00:41:13.647Z,16.67
2018-08-25T00:43:42.141Z,14.90
2018-08-25T00:46:10.623Z,13.80
2018-08-25T00:48:39.112Z,13.17
2018-08-25T00:51:07.605Z,13.30
2018-08-25T00:53:36.568Z,16.97
2018-08-25T00:56:05.109Z,14.23
2018-08-25T00:58:33.639Z,14.33
2018-08-25T01:01:02.405Z,16.03
2018-08-25T01:03:30.877Z,14.07
2018-08-25T01:05:59.353Z,14.67
2018-08-25T01:08:27.815Z,14.13
2018-08-25T01:10:56.278Z,14.70
2018-08-25T01:13:24.749Z,14.70
2018-08-25T01:15:53.190Z,13.97
2018-08-25T01:18:21.714Z,15.67
2018-08-25T01:20:50.755Z,13.70
2018-08-25T01:23:19.325Z,14.97
2018-08-25T01:25:47.790Z,13.33
2018-08-25T01:28:16.248Z,14.67
2018-08-25T01:30:44.686Z,14.27
2018-08-25T01:33:13.241Z,15.63
2018-08-25T01:35:41.676Z,14.90
2018-08-25T01:38:10.190Z,14.83
2018-08-25T01:40:38.709Z,14.03
2018-08-25T01:43:07.222Z,14.33
2018-08-25T01:45:35.655Z,16.17
2018-08-25T01:48:04.193Z,14.93
2018-08-25T01:50:32.634Z,15.57
2018-08-25T01:53:01.126Z,13.80
2018-08-25T01:55:29.671Z,14.13
2018-08-25T01:57:58.136Z,15.57
2018-08-25T02:00:26.631Z,15.27
2018-08-25T02:02:55.117Z,15.67
2018-08-25T02:05:23.587Z,16.30
2018-08-25T02:07:52.066Z,15.57
2018-08-25T02:10:20.515Z,15.17
2018-08-25T02:12:49.000Z,17.30
2018-08-25T02:15:17.469Z,15.90
2018-08-25T02:17:45.946Z,16.17
2018-08-25T02:20:14.393Z,16.20
2018-08-25T02:22:42.873Z,16.57
2018-08-25T02:25:11.338Z,17.20
2018-08-25T02:27:39.801Z,18.33
2018-08-25T02:30:08.268Z,15.63
2018-08-25T02:32:36.767Z,19.97
2018-08-25T02:35:05.602Z,14.50
2018-08-25T02:37:34.041Z,15.23
2018-08-25T02:40:02.543Z,15.50
2018-08-25T02:42:31.030Z,14.70
2018-08-25T02:44:59.499Z,14.73
2018-08-25T02:47:27.921Z,14.97
2018-08-25T02:49:56.389Z,15.50
2018-08-25T02:52:24.836Z,14.43
2018-08-25T02:54:53.307Z,15.47
2018-08-25T02:57:21.729Z,15.27
2018-08-25T02:59:50.193Z,16.30
2018-08-25T03:02:18.633Z,17.67
2018-08-25T03:04:47.107Z,18.13
2018-08-25T03:07:15.550Z,16.17
2018-08-25T03:09:44.011Z,16.50
2018-08-25T03:12:12.461Z,15.90
2018-08-25T03:14:40.924Z,15.73
2018-08-25T03:17:09.398Z,16.03
2018-08-25T03:19:37.871Z,17.10
2018-08-25T03:22:06.346Z,18.47
2018-08-25T03:24:34.868Z,16.90
2018-08-25T03:27:03.341Z,16.83
2018-08-25T03:29:31.814Z,17.93
2018-08-25T03:32:00.261Z,16.57
2018-08-25T03:34:28.735Z,17.50
2018-08-25T03:36:57.166Z,15.77
2018-08-25T03:39:25.646Z,15.93
2018-08-25T03:41:54.082Z,16.63
2018-08-25T03:44:22.548Z,17.40
2018-08-25T03:46:50.970Z,17.20
2018-08-25T03:49:19.444Z,17.93
2018-08-25T03:51:47.894Z,17.33
2018-08-25T03:54:16.365Z,19.47
2018-08-25T03:56:44.806Z,16.20
2018-08-25T03:59:13.534Z,15.83
2018-08-25T04:01:42.066Z,16.00
2018-08-25T04:04:10.457Z,16.43
2018-08-25T04:06:38.889Z,14.73
2018-08-25T04:09:09.938Z,15.37
2018-08-25T04:11:38.431Z,17.70
2018-08-25T04:14:07.810Z,15.17
2018-08-25T04:16:36.323Z,14.67
2018-08-25T04:19:04.805Z,16.70
2018-08-25T04:21:33.259Z,15.13
2018-08-25T04:24:01.779Z,15.03
2018-08-25T04:26:30.236Z,14.63
2018-08-25T04:28:58.711Z,15.03
2018-08-25T04:31:27.158Z,15.07
2018-08-25T04:33:55.640Z,15.00
2018-08-25T04:36:24.184Z,14.83
2018-08-25T04:38:52.637Z,14.33
2018-08-25T04:41:21.156Z,14.47
2018-08-25T04:43:49.591Z,17.10
2018-08-25T04:46:18.062Z,14.60
2018-08-25T04:48:46.545Z,14.57
2018-08-25T04:51:15.573Z,13.57
2018-08-25T04:53:44.246Z,14.17
2018-08-25T04:56:12.730Z,14.20
2018-08-25T04:58:41.169Z,13.23
2018-08-25T05:01:09.898Z,13.27
2018-08-25T05:03:38.380Z,13.73
2018-08-25T05:06:06.886Z,12.87
2018-08-25T05:08:35.332Z,11.23
2018-08-25T05:11:03.800Z,11.83
2018-08-25T05:13:32.278Z,11.00
2018-08-25T05:16:00.757Z,13.53
2018-08-25T05:18:29.302Z,10.70
2018-08-25T05:20:57.775Z,10.47
2018-08-25T05:23:26.202Z,11.50
2018-08-25T05:25:54.678Z,10.77
2018-08-25T05:28:23.122Z,10.70
2018-08-25T05:30:51.597Z,8.10
2018-08-25T05:33:20.085Z,9.50
2018-08-25T05:35:48.562Z,10.57
2018-08-25T05:38:17.014Z,10.53
2018-08-25T05:40:45.473Z,8.23
2018-08-25T05:43:13.929Z,11.13
2018-08-25T05:45:42.405Z,9.77
2018-08-25T05:48:10.855Z,9.33
2018-08-25T05:50:39.331Z,10.23
2018-08-25T05:53:07.885Z,10.50
2018-08-25T05:55:36.353Z,9.43
2018-08-25T05:58:04.851Z,10.03
2018-08-25T06:00:33.384Z,10.03
2018-08-25T06:03:01.850Z,8.97
2018-08-25T06:05:30.375Z,9.80
2018-08-25T06:07:58.878Z,8.67
2018-08-25T06:10:27.357Z,9.87
2018-08-25T06:12:57.530Z,9.27
2018-08-25T06:15:26.013Z,8.70
2018-08-25T06:17:57.366Z,9.70
2018-08-25T06:20:25.904Z,10.57
2018-08-25T06:22:54.647Z,8.93
2018-08-25T06:25:23.114Z,8.63
2018-08-25T06:27:51.710Z,11.00
2018-08-25T06:30:20.207Z,8.03
2018-08-25T06:32:48.657Z,8.43
2018-08-25T06:35:17.126Z,10.00
2018-08-25T06:37:45.577Z,8.43
2018-08-25T06:40:14.054Z,8.33
2018-08-25T06:42:42.605Z,8.20
2018-08-25T06:45:11.046Z,9.60
2018-08-25T06:47:39.601Z,7.50
2018-08-25T06:50:08.078Z,7.77
2018-08-25T06:52:36.537Z,6.80
2018-08-25T06:55:05.035Z,8.30
2018-08-25T06:57:33.614Z,8.07
2018-08-25T07:00:02.049Z,8.30
2018-08-25T07:02:30.517Z,7.80
2018-08-25T07:04:58.977Z,8.53
2018-08-25T07:07:27.458Z,10.07
2018-08-25T07:09:55.892Z,7.67
2018-08-25T07:12:24.347Z,7.60
2018-08-25T07:14:52.765Z,7.73
2018-08-25T07:17:21.255Z,6.97
2018-08-25T07:19:50.054Z,7.40
2018-08-25T07:22:18.529Z,7.37
2018-08-25T07:24:47.025Z,8.13
2018-08-25T07:27:15.510Z,6.70
2018-08-25T07:29:43.954Z,6.87
2018-08-25T07:32:12.479Z,10.13
2018-08-25T07:41:42.374Z,7.37
2018-08-25T07:44:11.125Z,6.17
2018-08-25T07:46:40.146Z,5.93
2018-08-25T07:49:08.639Z,6.23
2018-08-25T07:51:37.123Z,7.57
2018-08-25T07:54:05.647Z,9.50
2018-08-25T07:56:34.133Z,6.20
2018-08-25T07:59:02.595Z,6.40
2018-08-25T08:01:31.132Z,7.07
2018-08-25T08:03:59.569Z,6.03
2018-08-25T08:06:28.678Z,7.77
2018-08-25T08:08:57.150Z,6.57
2018-08-25T08:11:25.618Z,5.17
2018-08-25T08:13:54.121Z,5.47
2018-08-25T08:16:22.614Z,6.53
2018-08-25T08:18:51.071Z,4.93
2018-08-25T08:21:19.542Z,4.90
2018-08-25T08:23:48.098Z,5.90
2018-08-25T08:26:16.656Z,5.00
2018-08-25T08:28:45.183Z,5.03
2018-08-25T08:31:13.672Z,7.40
2018-08-25T08:33:42.157Z,5.50
2018-08-25T08:36:10.625Z,4.60
2018-08-25T08:38:39.721Z,5.83
2018-08-25T08:41:08.217Z,5.23
2018-08-25T08:43:37.218Z,5.47
2018-08-25T08:46:06.531Z,5.77
2018-08-25T08:48:35.039Z,5.70
2018-08-25T08:51:03.678Z,7.33
2018-08-25T08:53:32.145Z,5.40
2018-08-25T08:56:00.735Z,5.77
2018-08-25T08:58:29.289Z,4.97
2018-08-25T09:00:57.762Z,5.43
2018-08-25T09:03:26.308Z,6.73
2018-08-25T09:05:54.769Z,5.17
2018-08-25T09:08:23.271Z,6.67
2018-08-25T09:10:51.936Z,7.93
2018-08-25T09:13:21.487Z,6.93
2018-08-25T09:15:49.961Z,5.67
2018-08-25T09:18:18.438Z,5.00
2018-08-25T09:20:48.806Z,6.17
2018-08-25T09:23:17.278Z,5.70
2018-08-25T09:25:45.800Z,5.70
2018-08-25T09:28:14.407Z,4.80
2018-08-25T09:30:42.870Z,4.87
2018-08-25T09:33:11.369Z,5.33
2018-08-25T09:35:39.873Z,6.73
2018-08-25T09:38:08.329Z,5.00
2018-08-25T09:40:37.285Z,6.90
2018-08-25T09:43:06.277Z,5.93
2018-08-25T09:45:34.769Z,6.10
2018-08-25T09:48:03.282Z,9.50
2018-08-25T09:50:31.741Z,4.33
2018-08-25T09:53:00.250Z,6.47
2018-08-25T09:55:28.722Z,6.27
2018-08-25T09:57:57.210Z,4.90
2018-08-25T10:00:25.773Z,7.60
2018-08-25T10:02:54.276Z,5.00
2018-08-25T10:05:22.909Z,5.93
2018-08-25T10:07:51.365Z,5.40
2018-08-25T10:10:19.917Z,5.67
2018-08-25T10:12:48.389Z,5.87
2018-08-25T10:15:16.897Z,5.87
2018-08-25T10:17:45.399Z,5.73
2018-08-25T10:20:13.877Z,4.50
2018-08-25T10:22:42.364Z,4.33
2018-08-25T10:25:10.849Z,6.17
2018-08-25T10:27:39.353Z,6.08
2018-08-25T10:30:08.710Z,5.20
2018-08-25T10:32:37.178Z,4.77
2018-08-25T10:35:05.779Z,5.60
2018-08-25T10:37:34.529Z,5.10
2018-08-25T10:40:03.038Z,6.57
2018-08-25T10:42:31.506Z,8.30
2018-08-25T10:45:00.571Z,7.97
2018-08-25T10:47:29.044Z,5.50
2018-08-25T10:49:57.550Z,6.17
2018-08-25T10:52:26.078Z,7.20
2018-08-25T10:54:54.589Z,5.37
2018-08-25T10:57:23.069Z,5.90
2018-08-25T10:59:51.574Z,5.17
2018-08-25T11:02:26.284Z,4.78
2018-08-25T11:04:54.817Z,5.05
2018-08-25T11:07:23.069Z,7.60
2018-08-25T11:09:51.853Z,6.20
2018-08-25T11:12:20.524Z,3.97
2018-08-25T11:14:49.061Z,4.77
2018-08-25T11:17:17.538Z,4.30
2018-08-25T11:19:46.037Z,4.70
2018-08-25T11:22:14.502Z,5.37
2018-08-25T11:24:43.018Z,6.40
2018-08-25T11:27:11.567Z,4.30
2018-08-25T11:29:40.087Z,7.30
2018-08-25T11:32:08.634Z,7.17
2018-08-25T11:36:06.271Z,6.67
2018-08-25T11:38:34.743Z,4.93
2018-08-25T11:41:03.931Z,4.50
2018-08-25T11:43:32.444Z,6.90
2018-08-25T11:46:00.965Z,4.13
2018-08-25T11:48:29.438Z,4.73
2018-08-25T11:50:57.944Z,4.97
2018-08-25T11:53:26.393Z,6.83
2018-08-25T11:55:54.887Z,5.13
2018-08-25T11:58:23.364Z,5.43
2018-08-25T12:00:51.891Z,6.00
2018-08-25T12:03:20.396Z,7.50
2018-08-25T12:05:48.932Z,5.03
2018-08-25T12:08:17.400Z,6.17
2018-08-25T12:10:45.922Z,4.87
2018-08-25T12:13:14.438Z,6.33
2018-08-25T12:15:42.934Z,8.27
2018-08-25T12:18:11.408Z,5.87
2018-08-25T12:20:39.925Z,4.77
2018-08-25T12:23:08.488Z,7.50
2018-08-25T12:25:36.991Z,5.77
2018-08-25T12:28:05.589Z,6.27
2018-08-25T12:30:34.758Z,6.97
2018-08-25T12:33:03.206Z,6.30
2018-08-25T12:35:31.722Z,6.63
2018-08-25T12:38:00.207Z,5.03
2018-08-25T12:40:28.712Z,5.70
2018-08-25T12:42:57.231Z,5.10
2018-08-25T12:45:25.733Z,6.63
2018-08-25T12:47:54.191Z,5.30
2018-08-25T12:50:22.702Z,5.17
2018-08-25T12:52:51.164Z,6.37
2018-08-25T12:55:19.694Z,7.13
2018-08-25T12:57:49.486Z,8.77
2018-08-25T13:00:17.985Z,5.27
2018-08-25T13:02:46.564Z,3.90
2018-08-25T13:05:15.185Z,4.37
2018-08-25T13:07:43.704Z,3.57
2018-08-25T13:10:12.191Z,2.57
2018-08-25T13:12:40.654Z,4.97
2018-08-25T13:15:09.224Z,3.87
2018-08-25T13:17:39.777Z,4.60
2018-08-25T13:20:08.303Z,4.20
2018-08-25T13:22:36.765Z,2.43
2018-08-25T13:25:05.382Z,2.87
2018-08-25T13:27:33.777Z,4.40
2018-08-25T13:30:02.299Z,3.13
2018-08-25T13:32:30.762Z,2.40
2018-08-25T13:34:59.226Z,2.60
2018-08-25T13:37:27.714Z,2.43
2018-08-25T13:39:56.196Z,2.03
2018-08-25T13:42:24.649Z,2.80
2018-08-25T13:44:53.179Z,2.50
2018-08-25T13:47:21.864Z,1.93
2018-08-25T13:49:51.342Z,2.43
2018-08-25T13:52:19.886Z,1.77
2018-08-25T13:54:48.477Z,2.90
2018-08-25T13:57:17.300Z,2.10
2018-08-25T13:59:45.964Z,2.80
2018-08-25T14:02:14.471Z,2.07
2018-08-25T14:04:42.905Z,1.90
2018-08-25T14:07:11.468Z,2.60
2018-08-25T14:09:40.050Z,3.80
2018-08-25T14:12:08.549Z,3.03
2018-08-25T14:14:37.250Z,2.13
2018-08-25T14:17:05.871Z,2.63
2018-08-25T14:19:34.375Z,2.50
2018-08-25T14:22:02.854Z,1.83
2018-08-25T14:24:31.309Z,1.93
2018-08-25T14:26:59.785Z,3.37
2018-08-25T14:29:28.213Z,3.47
2018-08-25T14:31:56.720Z,2.90
2018-08-25T14:34:25.171Z,2.93
2018-08-25T14:36:53.675Z,2.50
2018-08-25T14:39:22.208Z,3.63
2018-08-25T14:41:50.713Z,2.47
2018-08-25T14:44:19.183Z,2.80
2018-08-25T14:46:47.682Z,3.80
2018-08-25T14:49:16.118Z,2.73
2018-08-25T14:51:44.655Z,2.63
2018-08-25T14:54:13.121Z,3.43
2018-08-25T14:56:41.619Z,4.33
2018-08-25T14:59:10.069Z,2.67
2018-08-25T15:01:38.561Z,2.97
2018-08-25T15:04:07.090Z,3.20
2018-08-25T15:06:35.617Z,3.43
2018-08-25T15:09:06.394Z,2.97
2018-08-25T15:11:34.894Z,3.57
2018-08-25T15:14:03.378Z,2.73
2018-08-25T15:16:31.872Z,4.17
2018-08-25T15:19:00.376Z,4.03
2018-08-25T15:21:28.867Z,3.23
2018-08-25T15:23:57.423Z,3.33
2018-08-25T15:26:25.963Z,2.40
2018-08-25T15:28:54.416Z,3.43
2018-08-25T15:31:22.897Z,2.27
2018-08-25T15:33:51.392Z,3.47
2018-08-25T15:36:19.858Z,5.27
2018-08-25T15:38:48.331Z,2.50
2018-08-25T15:41:16.773Z,2.97
2018-08-25T15:43:45.338Z,3.17
2018-08-25T15:46:13.782Z,2.60
2018-08-25T15:48:42.286Z,3.23
2018-08-25T15:51:10.774Z,2.90
2018-08-25T15:53:39.253Z,3.17
2018-08-25T15:56:07.929Z,4.47
2018-08-25T15:58:36.427Z,2.63
2018-08-25T16:01:04.957Z,4.80
2018-08-25T16:03:33.462Z,4.43
2018-08-25T16:06:02.000Z,4.07
2018-08-25T16:08:30.454Z,3.63
2018-08-25T16:10:58.914Z,4.43
2018-08-25T16:13:27.441Z,3.20
2018-08-25T16:15:55.915Z,5.10
2018-08-25T16:18:24.394Z,6.70
2018-08-25T16:20:52.851Z,4.57
2018-08-25T16:23:21.334Z,4.47
2018-08-25T16:25:50.034Z,4.40
2018-08-25T16:28:18.834Z,3.33
2018-08-25T16:30:54.707Z,4.63
2018-08-25T16:33:23.564Z,3.17
2018-08-25T16:35:53.609Z,4.80
2018-08-25T16:38:22.112Z,5.10
2018-08-25T16:40:50.741Z,4.63
2018-08-25T16:43:19.684Z,4.67
2018-08-25T16:45:48.190Z,4.27
2018-08-25T16:48:16.657Z,4.33
2018-08-25T16:50:45.090Z,4.60
2018-08-25T16:53:13.704Z,4.30
2018-08-25T16:55:42.374Z,4.03
2018-08-25T16:58:10.896Z,3.97
2018-08-25T17:00:39.434Z,4.77
2018-08-25T17:03:07.973Z,4.87
2018-08-25T17:05:36.449Z,4.20
2018-08-25T17:08:04.967Z,4.47
2018-08-25T17:10:33.425Z,3.77
2018-08-25T17:13:01.913Z,4.07
2018-08-25T17:15:30.395Z,3.00
2018-08-25T17:17:58.915Z,4.13
2018-08-25T17:20:27.405Z,3.73
2018-08-25T17:22:55.961Z,4.07
2018-08-25T17:25:24.515Z,2.63
2018-08-25T17:27:53.021Z,3.63
2018-08-25T17:30:21.503Z,3.47
2018-08-25T17:32:49.992Z,2.17
2018-08-25T17:35:18.473Z,3.30
2018-08-25T17:37:47.057Z,2.53
2018-08-25T17:40:15.564Z,3.20
2018-08-25T17:42:44.054Z,3.73
2018-08-25T17:45:12.667Z,4.13
2018-08-25T17:47:41.069Z,4.40
2018-08-25T17:50:09.572Z,4.87
2018-08-25T17:52:38.073Z,3.37
2018-08-25T17:55:06.633Z,2.90
2018-08-25T17:57:35.195Z,2.57
2018-08-25T18:00:03.790Z,3.33
2018-08-25T18:02:32.264Z,2.67
2018-08-25T18:05:00.786Z,3.47
2018-08-25T18:07:29.274Z,2.27
2018-08-25T18:09:57.803Z,3.47
2018-08-25T18:12:26.272Z,2.33
2018-08-25T18:14:54.783Z,3.13
2018-08-25T18:17:23.285Z,3.27
2018-08-25T18:19:51.810Z,2.30
2018-08-25T18:22:20.275Z,3.97
2018-08-25T18:24:48.793Z,2.63
2018-08-25T18:27:17.269Z,2.20
2018-08-25T18:29:45.798Z,3.07
2018-08-25T18:32:14.646Z,5.00
2018-08-25T18:34:43.218Z,3.00
2018-08-25T18:37:11.689Z,3.03
2018-08-25T18:39:40.190Z,3.00
2018-08-25T18:42:08.694Z,4.07
2018-08-25T18:44:37.187Z,3.43
2018-08-25T18:47:06.248Z,2.57
2018-08-25T18:49:34.866Z,2.97
2018-08-25T18:52:03.359Z,3.57
2018-08-25T18:54:31.883Z,2.73
2018-08-25T18:57:00.333Z,2.77
2018-08-25T18:59:29.046Z,3.37
2018-08-25T19:01:57.591Z,3.30
2018-08-25T19:04:26.085Z,4.10
2018-08-25T19:06:54.563Z,2.83
2018-08-25T19:09:23.090Z,4.63
2018-08-25T19:11:51.554Z,3.07
2018-08-25T19:14:20.165Z,2.67
2018-08-25T19:16:48.549Z,2.80
2018-08-25T19:19:17.054Z,2.93
2018-08-25T19:21:45.537Z,3.90
2018-08-25T19:24:14.075Z,2.70
2018-08-25T19:26:42.530Z,3.37
2018-08-25T19:29:11.043Z,4.27
2018-08-25T19:31:39.567Z,3.63
2018-08-25T19:34:08.081Z,4.47
2018-08-25T19:36:36.584Z,2.90
2018-08-25T19:39:07.850Z,4.57
2018-08-25T19:41:36.427Z,3.47
2018-08-25T19:44:04.947Z,4.20
2018-08-25T19:46:33.437Z,3.67
2018-08-25T19:49:01.993Z,5.70
2018-08-25T19:51:30.502Z,4.80
2018-08-25T19:53:59.026Z,3.30
2018-08-25T19:56:27.606Z,3.40
2018-08-25T19:58:56.069Z,4.03
2018-08-25T20:01:24.749Z,2.63
2018-08-25T20:03:53.210Z,3.77
2018-08-25T20:06:21.726Z,3.67
2018-08-25T20:08:50.250Z,3.27
2018-08-25T20:11:18.745Z,4.13
2018-08-25T20:13:47.229Z,3.07
2018-08-25T20:16:15.989Z,4.63
2018-08-25T20:18:44.528Z,3.17
2018-08-25T20:21:13.146Z,4.27
2018-08-25T20:23:41.892Z,2.97
2018-08-25T20:26:10.393Z,4.67
2018-08-25T20:28:38.879Z,2.60
2018-08-25T20:31:07.429Z,3.67
2018-08-25T20:33:35.904Z,2.83
2018-08-25T20:36:04.437Z,2.77
2018-08-25T20:38:32.911Z,3.23
2018-08-25T20:41:01.409Z,2.63
2018-08-25T20:43:29.871Z,3.97
2018-08-25T20:45:58.554Z,2.97
2018-08-25T20:48:27.196Z,3.23
2018-08-25T20:50:55.739Z,3.13
2018-08-25T20:53:24.288Z,2.80
2018-08-25T20:55:52.826Z,3.93
2018-08-25T20:58:21.620Z,3.07
2018-08-25T21:00:50.302Z,2.50
2018-08-25T21:03:18.780Z,3.27
2018-08-25T21:05:47.331Z,5.10
2018-08-25T21:08:15.838Z,3.43
2018-08-25T21:10:45.290Z,4.13
2018-08-25T21:13:13.764Z,3.10
2018-08-25T21:15:42.305Z,2.27
2018-08-25T21:18:10.742Z,4.33
2018-08-25T21:20:39.239Z,4.73
2018-08-25T21:23:07.697Z,5.63
2018-08-25T21:25:36.215Z,4.37
2018-08-25T21:28:04.751Z,2.90
2018-08-25T21:30:33.237Z,3.03
2018-08-25T21:33:01.715Z,3.87
2018-08-25T21:35:30.192Z,2.50
2018-08-25T21:37:58.699Z,3.80
2018-08-25T21:40:27.211Z,2.97
2018-08-25T21:42:55.730Z,3.67
2018-08-25T21:45:24.905Z,2.60
2018-08-25T21:47:53.457Z,4.37
2018-08-25T21:50:22.025Z,2.93
2018-08-25T21:52:50.526Z,4.23
2018-08-25T21:55:18.973Z,4.13
2018-08-25T21:57:47.475Z,6.23
2018-08-25T22:00:16.051Z,3.30
2018-08-25T22:02:44.572Z,5.30
2018-08-25T22:05:13.090Z,4.73
2018-08-25T22:07:41.598Z,2.93
2018-08-25T22:10:10.103Z,3.60
2018-08-25T22:12:38.650Z,4.67
2018-08-25T22:15:07.203Z,4.37
2018-08-25T22:17:35.700Z,4.77
2018-08-25T22:20:04.281Z,4.70
2018-08-25T22:22:33.163Z,4.27
2018-08-25T22:25:01.643Z,4.40
2018-08-25T22:27:30.226Z,4.03
2018-08-25T22:29:58.717Z,5.43
2018-08-25T22:32:27.214Z,4.10
2018-08-25T22:34:55.834Z,5.67
2018-08-25T22:37:24.333Z,6.33
2018-08-25T22:39:52.810Z,3.97
2018-08-25T22:42:21.306Z,7.17
2018-08-25T22:44:49.773Z,4.67
2018-08-25T22:47:18.299Z,3.80
2018-08-25T22:49:46.778Z,4.47
2018-08-25T22:52:15.281Z,3.90
2018-08-25T22:54:43.790Z,3.47
2018-08-25T22:57:12.281Z,4.00
2018-08-25T22:59:40.746Z,5.03
2018-08-25T23:02:09.233Z,4.10
2018-08-25T23:04:37.758Z,5.07
2018-08-25T23:07:06.248Z,5.10
2018-08-25T23:09:34.728Z,4.40
2018-08-25T23:12:03.265Z,5.17
2018-08-25T23:14:31.723Z,4.97
2018-08-25T23:17:00.205Z,4.80
2018-08-25T23:19:28.666Z,6.03
2018-08-25T23:21:57.173Z,5.87
2018-08-25T23:24:25.647Z,5.67
2018-08-25T23:26:54.146Z,6.73
2018-08-25T23:29:22.606Z,5.07
2018-08-25T23:31:51.118Z,6.20
2018-08-25T23:34:19.600Z,6.70
2018-08-25T23:36:48.080Z,7.37
2018-08-25T23:39:16.625Z,6.23
2018-08-25T23:41:45.091Z,5.27
2018-08-25T23:44:13.753Z,6.67
2018-08-25T23:46:42.213Z,6.07
2018-08-25T23:49:10.713Z,6.40
2018-08-25T23:51:39.177Z,7.10
2018-08-25T23:54:07.771Z,6.77
2018-08-25T23:56:36.229Z,6.50
2018-08-25T23:59:04.753Z,6.10
